createdAt,value
2024-05-09T00:01:02.918Z,7.50
2024-05-09T00:03:32.740Z,8.05
2024-05-09T00:06:02.598Z,8.38
2024-05-09T00:08:32.622Z,8.70
2024-05-09T00:11:05.256Z,8.93
2024-05-09T00:13:35.039Z,8.00
2024-05-09T00:16:04.757Z,8.60
2024-05-09T00:18:34.565Z,9.02
2024-05-09T00:21:06.768Z,7.97
2024-05-09T00:23:36.752Z,8.52
2024-05-09T00:26:09.231Z,8.27
2024-05-09T00:28:38.965Z,8.93
2024-05-09T00:31:08.578Z,8.50
2024-05-09T00:33:38.553Z,8.90
2024-05-09T00:36:10.060Z,8.48
2024-05-09T00:38:39.736Z,8.77
2024-05-09T00:41:12.024Z,8.15
2024-05-09T00:43:41.784Z,8.93
2024-05-09T00:46:12.570Z,8.63
2024-05-09T00:48:44.925Z,9.40
2024-05-09T00:51:14.899Z,9.85
2024-05-09T00:53:44.935Z,8.98
2024-05-09T00:56:18.438Z,9.02
2024-05-09T00:58:48.654Z,9.27
2024-05-09T01:01:23.798Z,9.40
2024-05-09T01:03:54.043Z,9.45
2024-05-09T01:06:24.309Z,9.95
2024-05-09T01:08:54.137Z,10.40
2024-05-09T01:11:26.545Z,9.93
2024-05-09T01:13:56.436Z,9.30
2024-05-09T01:16:26.421Z,10.07
2024-05-09T01:18:56.202Z,10.00
2024-05-09T01:21:26.106Z,9.45
2024-05-09T01:23:59.722Z,9.85
2024-05-09T01:26:32.465Z,9.70
2024-05-09T01:29:02.686Z,11.23
2024-05-09T01:31:32.769Z,10.27
2024-05-09T01:34:03.025Z,9.85
2024-05-09T01:36:32.819Z,10.38
2024-05-09T01:39:05.298Z,9.43
2024-05-09T01:41:34.939Z,10.48
2024-05-09T01:44:04.686Z,9.98
2024-05-09T01:46:34.936Z,10.02
2024-05-09T01:49:04.661Z,10.68
2024-05-09T01:51:34.398Z,11.00
2024-05-09T01:54:07.060Z,10.77
2024-05-09T01:59:07.609Z,9.23
2024-05-09T02:01:55.696Z,10.15
2024-05-09T02:04:27.413Z,11.52
2024-05-09T02:06:57.059Z,11.82
2024-05-09T02:09:29.456Z,11.15
2024-05-09T02:11:59.295Z,11.10
2024-05-09T02:14:29.015Z,11.52
2024-05-09T02:16:58.910Z,12.15
2024-05-09T02:19:28.819Z,11.73
2024-05-09T02:21:58.497Z,11.85
2024-05-09T02:24:30.822Z,11.95
2024-05-09T02:27:00.670Z,11.88
2024-05-09T02:29:30.520Z,11.95
2024-05-09T02:32:00.552Z,11.45
2024-05-09T02:34:30.395Z,11.63
2024-05-09T02:37:00.092Z,11.43
2024-05-09T02:39:29.724Z,12.55
2024-05-09T02:41:59.525Z,12.43
2024-05-09T02:44:26.888Z,11.73
2024-05-09T02:46:56.657Z,11.93
2024-05-09T02:49:24.855Z,12.63
2024-05-09T02:51:54.758Z,12.68
2024-05-09T02:54:22.061Z,12.57
2024-05-09T02:56:54.487Z,13.02
2024-05-09T02:59:21.922Z,12.45
2024-05-09T03:01:51.760Z,12.48
2024-05-09T03:04:18.971Z,11.90
2024-05-09T03:06:48.637Z,12.43
2024-05-09T03:09:15.946Z,12.18
2024-05-09T03:14:19.238Z,13.32
2024-05-09T03:16:49.000Z,12.00
2024-05-09T03:19:16.230Z,12.55
2024-05-09T03:21:46.055Z,12.27
2024-05-09T03:24:13.085Z,13.10
2024-05-09T03:26:44.135Z,13.48
2024-05-09T03:29:11.132Z,12.93
2024-05-09T03:31:44.295Z,12.73
2024-05-09T03:34:11.773Z,12.90
2024-05-09T03:36:44.123Z,12.73
2024-05-09T03:39:13.941Z,12.60
2024-05-09T03:41:43.798Z,13.07
2024-05-09T03:44:13.392Z,12.05
2024-05-09T03:46:43.058Z,12.02
2024-05-09T03:49:12.752Z,11.32
2024-05-09T03:51:42.891Z,11.18
2024-05-09T03:54:10.104Z,11.32
2024-05-09T03:56:40.066Z,11.82
2024-05-09T03:59:07.973Z,10.65
2024-05-09T04:01:37.744Z,11.05
2024-05-09T04:04:09.468Z,11.38
2024-05-09T04:06:39.294Z,11.15
2024-05-09T04:09:06.520Z,10.45
2024-05-09T04:11:36.275Z,10.45
2024-05-09T04:14:03.376Z,10.85
2024-05-09T04:16:33.141Z,11.25
2024-05-09T04:19:00.254Z,10.60
2024-05-09T04:21:32.598Z,11.32
2024-05-09T04:23:59.718Z,11.88
2024-05-09T04:26:29.531Z,12.32
2024-05-09T04:28:56.683Z,12.90
2024-05-09T04:31:26.518Z,13.10
2024-05-09T04:33:53.731Z,12.25
2024-05-09T04:36:23.549Z,12.38
2024-05-09T04:38:53.197Z,12.02
2024-05-09T04:41:22.918Z,11.50
2024-05-09T04:43:50.868Z,12.07
2024-05-09T04:46:20.577Z,11.73
2024-05-09T04:48:48.933Z,11.50
2024-05-09T04:51:18.818Z,11.48
2024-05-09T04:53:45.948Z,11.30
2024-05-09T04:56:18.255Z,12.57
2024-05-09T04:58:45.239Z,12.18
2024-05-09T05:01:15.065Z,12.43
2024-05-09T05:03:42.687Z,11.93
2024-05-09T05:06:12.563Z,11.65
2024-05-09T05:08:39.584Z,12.18
2024-05-09T05:11:09.394Z,12.15
2024-05-09T05:13:41.539Z,11.57
2024-05-09T05:16:11.739Z,11.10
2024-05-09T05:18:39.034Z,11.95
2024-05-09T05:21:09.023Z,10.82
2024-05-09T05:23:36.340Z,12.48
2024-05-09T05:26:06.292Z,12.25
2024-05-09T05:28:33.466Z,12.63
2024-05-09T05:31:05.681Z,12.48
2024-05-09T05:33:32.871Z,12.88
2024-05-09T05:36:02.684Z,12.52
2024-05-09T05:38:29.960Z,13.18
2024-05-09T05:40:59.615Z,12.60
2024-05-09T05:43:27.744Z,12.55
2024-05-09T05:45:57.704Z,12.75
2024-05-09T05:48:30.015Z,13.57
2024-05-09T05:50:57.140Z,13.15
2024-05-09T05:53:29.309Z,13.60
2024-05-09T05:55:56.465Z,12.73
2024-05-09T05:58:26.123Z,12.40
2024-05-09T06:00:53.891Z,13.27
2024-05-09T06:03:23.694Z,12.82
2024-05-09T06:05:53.451Z,12.93
2024-05-09T06:08:24.195Z,13.90
2024-05-09T06:10:52.235Z,13.52
2024-05-09T06:13:22.120Z,13.63
2024-05-09T06:15:49.578Z,14.38
2024-05-09T06:18:19.667Z,14.70
2024-05-09T06:20:47.030Z,13.40
2024-05-09T06:23:22.481Z,14.43
2024-05-09T06:25:49.820Z,13.48
2024-05-09T06:28:19.476Z,14.25
2024-05-09T06:30:46.549Z,14.05
2024-05-09T06:33:16.884Z,13.82
2024-05-09T06:35:46.761Z,13.07
2024-05-09T06:38:19.395Z,13.38
2024-05-09T06:40:46.564Z,13.45
2024-05-09T06:43:18.956Z,13.93
2024-05-09T06:45:48.240Z,13.30
2024-05-09T06:48:21.856Z,12.65
2024-05-09T06:50:50.667Z,13.05
2024-05-09T06:53:24.234Z,13.63
2024-05-09T06:55:51.606Z,12.82
2024-05-09T06:58:24.014Z,13.13
2024-05-09T07:00:51.135Z,13.90
2024-05-09T07:03:20.912Z,12.70
2024-05-09T07:05:49.335Z,12.95
2024-05-09T07:08:19.907Z,13.65
2024-05-09T07:10:50.217Z,13.93
2024-05-09T07:13:20.309Z,13.70
2024-05-09T07:15:47.478Z,13.32
2024-05-09T07:18:20.148Z,13.50
2024-05-09T07:20:49.400Z,13.85
2024-05-09T07:23:20.259Z,13.70
2024-05-09T07:25:50.082Z,12.77
2024-05-09T07:28:21.277Z,12.40
2024-05-09T07:30:51.271Z,12.57
2024-05-09T07:33:20.060Z,13.85
2024-05-09T07:35:51.484Z,13.07
2024-05-09T07:38:18.799Z,13.13
2024-05-09T07:40:49.098Z,12.90
2024-05-09T07:43:21.966Z,13.27
2024-05-09T07:45:54.493Z,13.20
2024-05-09T07:50:00.247Z,13.23
2024-05-09T07:56:24.239Z,11.65
2024-05-09T07:58:55.658Z,13.25
2024-05-09T08:01:26.563Z,15.02
2024-05-09T08:03:54.677Z,14.18
2024-05-09T08:06:27.788Z,14.77
2024-05-09T08:08:55.347Z,12.90
2024-05-09T08:11:25.822Z,13.98
2024-05-09T08:13:55.555Z,14.00
2024-05-09T08:16:25.427Z,13.02
2024-05-09T08:18:52.675Z,13.50
2024-05-09T08:21:22.837Z,13.02
2024-05-09T08:23:50.236Z,12.82
2024-05-09T08:26:21.557Z,12.90
2024-05-09T08:28:49.286Z,13.30
2024-05-09T08:31:21.659Z,12.00
2024-05-09T08:33:51.144Z,11.95
2024-05-09T08:36:21.105Z,11.52
2024-05-09T08:38:51.973Z,11.10
2024-05-09T08:41:22.121Z,11.35
2024-05-09T08:43:50.570Z,10.95
2024-05-09T08:46:23.171Z,10.98
2024-05-09T08:48:53.124Z,13.50
2024-05-09T08:51:26.189Z,12.38
2024-05-09T08:53:55.200Z,10.50
2024-05-09T08:56:30.801Z,11.38
2024-05-09T08:59:01.634Z,10.77
2024-05-09T09:01:35.773Z,11.00
2024-05-09T09:04:08.298Z,9.63
2024-05-09T09:06:37.435Z,9.93
2024-05-09T09:09:07.333Z,10.82
2024-05-09T09:11:34.351Z,11.48
2024-05-09T09:14:04.071Z,10.98
2024-05-09T09:16:37.444Z,10.15
2024-05-09T09:19:07.561Z,9.80
2024-05-09T09:21:35.029Z,11.93
2024-05-09T09:24:10.028Z,12.30
2024-05-09T09:26:37.905Z,10.73
2024-05-09T09:29:07.803Z,10.32
2024-05-09T09:31:42.096Z,9.55
2024-05-09T09:34:12.363Z,9.77
2024-05-09T09:36:41.188Z,9.90
2024-05-09T09:39:12.470Z,10.77
2024-05-09T09:41:41.663Z,11.68
2024-05-09T09:44:13.290Z,11.45
2024-05-09T09:46:45.046Z,9.60
2024-05-09T09:49:15.574Z,10.20
2024-05-09T09:51:44.669Z,10.35
2024-05-09T09:54:17.700Z,9.05
2024-05-09T09:56:47.690Z,9.77
2024-05-09T09:59:19.497Z,9.68
2024-05-09T10:01:49.531Z,9.30
2024-05-09T10:04:20.566Z,8.15
2024-05-09T10:06:54.102Z,8.77
2024-05-09T10:09:24.532Z,9.60
2024-05-09T10:11:59.970Z,9.55
2024-05-09T10:14:33.495Z,8.10
2024-05-09T10:17:06.817Z,7.80
2024-05-09T10:19:36.581Z,7.78
2024-05-09T10:22:04.727Z,7.55
2024-05-09T10:24:50.199Z,8.00
2024-05-09T10:27:26.040Z,7.18
2024-05-09T10:29:56.407Z,8.05
2024-05-09T10:32:28.099Z,8.70
2024-05-09T10:35:08.077Z,9.73
2024-05-09T10:37:35.811Z,8.52
2024-05-09T10:40:11.927Z,7.68
2024-05-09T10:42:44.765Z,6.47
2024-05-09T10:45:14.410Z,7.22
2024-05-09T10:47:44.528Z,11.98
2024-05-09T10:50:22.287Z,9.38
2024-05-09T10:52:55.729Z,9.25
2024-05-09T10:55:32.163Z,8.75
2024-05-09T10:58:02.581Z,9.25
2024-05-09T11:00:36.419Z,9.55
2024-05-09T11:03:10.163Z,10.40
2024-05-09T11:05:45.032Z,10.35
2024-05-09T11:08:12.459Z,9.25
2024-05-09T11:10:42.923Z,8.25
2024-05-09T11:13:10.425Z,8.63
2024-05-09T11:15:43.570Z,7.90
2024-05-09T11:18:27.792Z,7.75
2024-05-09T11:20:57.271Z,7.05
2024-05-09T11:23:30.673Z,7.03
2024-05-09T11:25:59.179Z,6.38
2024-05-09T11:28:30.805Z,7.20
2024-05-09T11:31:06.665Z,7.20
2024-05-09T11:33:44.131Z,7.53
2024-05-09T11:36:12.224Z,7.95
2024-05-09T11:38:50.235Z,6.88
2024-05-09T11:41:20.588Z,6.70
2024-05-09T11:43:51.893Z,7.65
2024-05-09T11:46:51.744Z,7.53
2024-05-09T11:49:27.076Z,7.20
2024-05-09T11:55:02.844Z,6.25
2024-05-09T11:57:29.985Z,6.85
2024-05-09T12:00:00.127Z,6.68
2024-05-09T12:02:27.907Z,5.40
2024-05-09T12:05:01.904Z,5.05
2024-05-09T12:07:29.239Z,5.50
2024-05-09T12:09:59.152Z,5.35
2024-05-09T12:12:26.346Z,6.65
2024-05-09T12:14:56.033Z,5.82
2024-05-09T12:17:23.146Z,5.25
2024-05-09T12:19:53.632Z,5.38
2024-05-09T12:22:25.304Z,5.35
2024-05-09T12:24:55.608Z,5.50
2024-05-09T12:27:22.726Z,5.70
2024-05-09T12:29:53.078Z,4.88
2024-05-09T12:32:20.368Z,5.00
2024-05-09T12:34:50.112Z,4.72
2024-05-09T12:37:18.748Z,5.78
2024-05-09T12:39:51.134Z,5.63
2024-05-09T12:42:26.650Z,5.60
2024-05-09T12:44:57.760Z,4.68
2024-05-09T12:47:25.243Z,6.50
2024-05-09T12:49:55.087Z,5.43
2024-05-09T12:52:22.370Z,4.97
2024-05-09T12:54:54.928Z,4.75
2024-05-09T12:57:22.230Z,5.43
2024-05-09T12:59:51.846Z,5.45
2024-05-09T13:02:19.101Z,5.80
2024-05-09T13:04:48.975Z,5.03
2024-05-09T13:07:16.190Z,6.03
2024-05-09T13:09:55.450Z,7.53
2024-05-09T13:12:26.940Z,6.25
2024-05-09T13:14:56.613Z,6.47
2024-05-09T13:17:23.863Z,6.43
2024-05-09T13:19:53.636Z,6.85
2024-05-09T13:23:00.300Z,6.80
2024-05-09T13:25:30.490Z,7.93
2024-05-09T13:28:00.579Z,8.63
2024-05-09T13:30:38.798Z,7.88
2024-05-09T13:33:09.128Z,7.32
2024-05-09T13:35:39.835Z,7.32
2024-05-09T13:38:07.706Z,8.15
2024-05-09T13:40:37.436Z,10.07
2024-05-09T13:43:07.267Z,9.23
2024-05-09T13:45:37.094Z,8.88
2024-05-09T13:48:06.720Z,9.75
2024-05-09T13:50:37.149Z,8.48
2024-05-09T13:53:05.795Z,9.93
2024-05-09T13:55:36.440Z,9.60
2024-05-09T13:58:03.738Z,9.23
2024-05-09T14:00:44.404Z,8.57
2024-05-09T14:03:16.642Z,8.27
2024-05-09T14:05:48.393Z,8.23
2024-05-09T14:08:17.851Z,9.23
2024-05-09T14:10:48.934Z,8.18
2024-05-09T14:13:16.598Z,8.38
2024-05-09T14:15:49.555Z,7.43
2024-05-09T14:18:18.433Z,7.50
2024-05-09T14:20:51.192Z,7.65
2024-05-09T14:23:18.425Z,7.30
2024-05-09T14:25:52.156Z,7.65
2024-05-09T14:28:26.441Z,8.15
2024-05-09T14:31:01.331Z,8.23
2024-05-09T14:33:30.700Z,6.88
2024-05-09T14:36:00.685Z,7.53
2024-05-09T14:38:27.891Z,7.22
2024-05-09T14:40:57.574Z,7.15
2024-05-09T14:43:24.905Z,6.70
2024-05-09T14:45:55.856Z,7.03
2024-05-09T14:48:27.239Z,7.05
2024-05-09T14:50:59.555Z,7.25
2024-05-09T14:53:28.251Z,6.90
2024-05-09T14:55:58.350Z,7.47
2024-05-09T14:58:26.491Z,7.88
2024-05-09T15:00:56.501Z,7.50
2024-05-09T15:05:56.815Z,7.35
2024-05-09T15:08:23.988Z,7.55
2024-05-09T15:10:53.652Z,7.07
2024-05-09T15:13:21.153Z,8.50
2024-05-09T15:15:51.050Z,8.25
2024-05-09T15:18:18.534Z,7.97
2024-05-09T15:20:51.325Z,8.25
2024-05-09T15:23:18.628Z,9.20
2024-05-09T15:25:48.191Z,10.32
2024-05-09T15:28:15.678Z,9.88
2024-05-09T15:30:46.861Z,9.07
2024-05-09T15:33:14.693Z,10.00
2024-05-09T15:35:46.253Z,10.77
2024-05-09T15:38:16.322Z,10.50
2024-05-09T15:40:46.111Z,9.32
2024-05-09T15:43:13.414Z,10.00
2024-05-09T15:45:43.344Z,9.25
2024-05-09T15:48:11.458Z,8.48
2024-05-09T15:50:42.654Z,9.88
2024-05-09T15:53:12.045Z,8.93
2024-05-09T15:55:45.480Z,8.80
2024-05-09T15:58:13.271Z,9.10
2024-05-09T16:00:46.307Z,8.32
2024-05-09T16:03:15.575Z,9.38
2024-05-09T16:05:48.929Z,9.43
2024-05-09T16:08:16.608Z,10.38
2024-05-09T16:10:49.448Z,9.95
2024-05-09T16:13:17.446Z,10.23
2024-05-09T16:15:48.017Z,9.82
2024-05-09T16:18:15.686Z,9.60
2024-05-09T16:20:48.275Z,9.55
2024-05-09T16:23:19.671Z,7.95
2024-05-09T16:25:51.388Z,8.82
2024-05-09T16:28:22.908Z,8.43
2024-05-09T16:30:50.954Z,8.82
2024-05-09T16:33:23.719Z,9.13
2024-05-09T16:35:51.524Z,8.55
2024-05-09T16:38:22.818Z,7.97
2024-05-09T16:40:55.234Z,8.45
2024-05-09T16:45:53.413Z,6.45
2024-05-09T16:48:20.622Z,6.85
2024-05-09T16:50:51.774Z,7.47
2024-05-09T16:53:19.164Z,7.70
2024-05-09T16:55:49.052Z,7.43
2024-05-09T16:58:19.406Z,6.93
2024-05-09T17:00:49.386Z,6.63
2024-05-09T17:03:17.038Z,5.88
2024-05-09T17:05:47.992Z,6.60
2024-05-09T17:08:16.302Z,6.38
2024-05-09T17:10:46.248Z,6.85
2024-05-09T17:13:16.189Z,6.95
2024-05-09T17:15:52.510Z,6.85
2024-05-09T17:18:20.467Z,7.15
2024-05-09T17:20:50.427Z,7.32
2024-05-09T17:23:17.517Z,7.50
2024-05-09T17:25:47.250Z,7.38
2024-05-09T17:28:14.529Z,6.65
2024-05-09T17:30:44.453Z,5.93
2024-05-09T17:33:14.639Z,6.30
2024-05-09T17:35:46.128Z,6.00
2024-05-09T17:38:13.359Z,5.97
2024-05-09T17:40:43.170Z,5.88
2024-05-09T17:43:10.998Z,5.90
2024-05-09T17:45:41.874Z,6.53
2024-05-09T17:48:11.023Z,6.45
2024-05-09T17:50:44.074Z,5.90
2024-05-09T17:53:11.515Z,5.70
2024-05-09T17:55:41.741Z,6.20
2024-05-09T17:58:09.804Z,6.30
2024-05-09T18:00:42.028Z,6.53
2024-05-09T18:03:12.217Z,6.15
2024-05-09T18:05:46.073Z,6.40
2024-05-09T18:08:13.843Z,6.00
2024-05-09T18:10:50.664Z,5.97
2024-05-09T18:13:19.216Z,5.28
2024-05-09T18:15:49.098Z,5.60
2024-05-09T18:18:16.463Z,5.28
2024-05-09T18:20:53.756Z,5.85
2024-05-09T18:23:20.932Z,5.95
2024-05-09T18:25:54.917Z,7.18
2024-05-09T18:28:22.857Z,6.53
2024-05-09T18:30:52.785Z,6.35
2024-05-09T18:33:20.761Z,5.78
2024-05-09T18:35:53.232Z,6.18
2024-05-09T18:40:55.473Z,5.35
2024-05-09T18:43:28.741Z,6.05
2024-05-09T18:46:06.383Z,6.28
2024-05-09T18:48:33.954Z,6.33
2024-05-09T18:51:06.871Z,6.25
2024-05-09T18:53:33.910Z,5.20
2024-05-09T18:56:03.739Z,5.38
2024-05-09T18:58:33.362Z,5.93
2024-05-09T19:01:02.058Z,5.43
2024-05-09T19:03:32.085Z,5.43
2024-05-09T19:05:59.433Z,5.82
2024-05-09T19:08:32.147Z,5.88
2024-05-09T19:10:59.312Z,5.80
2024-05-09T19:13:28.980Z,5.10
2024-05-09T19:15:56.965Z,5.30
2024-05-09T19:18:26.828Z,5.10
2024-05-09T19:20:53.953Z,5.57
2024-05-09T19:23:23.930Z,5.70
2024-05-09T19:25:53.727Z,5.55
2024-05-09T19:28:23.661Z,6.85
2024-05-09T19:30:51.504Z,6.22
2024-05-09T19:33:22.338Z,6.50
2024-05-09T19:35:49.680Z,6.85
2024-05-09T19:38:19.673Z,6.20
2024-05-09T19:40:46.809Z,6.97
2024-05-09T19:43:19.815Z,6.82
2024-05-09T19:45:47.256Z,7.40
2024-05-09T19:48:17.347Z,6.93
2024-05-09T19:50:45.477Z,7.07
2024-05-09T19:53:15.818Z,6.95
2024-05-09T19:55:43.651Z,6.57
2024-05-09T19:58:13.544Z,7.20
2024-05-09T20:00:44.792Z,7.60
2024-05-09T20:03:16.194Z,7.68
2024-05-09T20:05:45.360Z,7.90
2024-05-09T20:08:19.181Z,7.03
2024-05-09T20:10:46.241Z,7.07
2024-05-09T20:13:16.525Z,7.13
2024-05-09T20:15:46.766Z,7.45
2024-05-09T20:18:20.235Z,7.13
2024-05-09T20:20:50.667Z,7.35
2024-05-09T20:23:22.530Z,6.10
2024-05-09T20:25:52.271Z,6.75
2024-05-09T20:28:22.079Z,6.93
2024-05-09T20:30:51.854Z,6.65
2024-05-09T20:33:21.697Z,7.13
2024-05-09T20:35:48.770Z,6.80
2024-05-09T20:38:18.395Z,7.38
2024-05-09T20:40:46.149Z,6.45
2024-05-09T20:43:16.389Z,6.60
2024-05-09T20:45:43.680Z,6.32
2024-05-09T20:48:16.238Z,6.63
2024-05-09T20:50:43.520Z,6.88
2024-05-09T20:53:15.120Z,6.88
2024-05-09T20:55:43.088Z,7.70
2024-05-09T20:58:13.775Z,6.82
2024-05-09T21:00:44.790Z,6.40
2024-05-09T21:03:18.836Z,6.50
2024-05-09T21:05:46.797Z,6.32
2024-05-09T21:08:16.886Z,6.30
2024-05-09T21:10:49.348Z,6.18
2024-05-09T21:15:46.242Z,5.70
2024-05-09T21:18:18.827Z,5.82
2024-05-09T21:23:15.424Z,6.75
2024-05-09T21:25:42.465Z,7.20
2024-05-09T21:28:12.250Z,6.90
2024-05-09T21:30:42.446Z,6.78
2024-05-09T21:33:14.804Z,7.07
2024-05-09T21:35:45.322Z,6.78
2024-05-09T21:38:16.132Z,6.60
2024-05-09T21:40:43.729Z,7.22
2024-05-09T21:43:14.293Z,7.38
2024-05-09T21:45:41.936Z,7.07
2024-05-09T21:48:11.870Z,6.82
2024-05-09T21:50:41.522Z,7.28
2024-05-09T21:53:14.972Z,7.07
2024-05-09T21:55:42.528Z,6.40
2024-05-09T21:58:12.355Z,6.63
2024-05-09T22:00:40.738Z,7.15
2024-05-09T22:03:12.093Z,7.53
2024-05-09T22:05:43.888Z,7.25
2024-05-09T22:08:16.289Z,6.97
2024-05-09T22:10:43.990Z,7.18
2024-05-09T22:13:15.812Z,6.90
2024-05-09T22:16:00.325Z,6.43
2024-05-09T22:18:33.412Z,6.95
2024-05-09T22:21:00.473Z,7.07
2024-05-09T22:23:32.882Z,7.20
2024-05-09T22:25:59.847Z,6.68
2024-05-09T22:28:29.466Z,6.60
2024-05-09T22:30:56.539Z,6.72
2024-05-09T22:33:26.167Z,6.68
2024-05-09T22:35:53.239Z,7.03
2024-05-09T22:38:23.247Z,6.95
2024-05-09T22:40:53.201Z,7.38
2024-05-09T22:43:24.885Z,7.13
2024-05-09T22:45:52.894Z,6.90
2024-05-09T22:48:23.674Z,7.43
2024-05-09T22:50:51.487Z,7.68
2024-05-09T22:53:21.492Z,7.25
2024-05-09T22:55:48.468Z,7.88
2024-05-09T22:58:21.470Z,7.72
2024-05-09T23:00:48.813Z,7.63
2024-05-09T23:03:21.492Z,7.70
2024-05-09T23:05:49.053Z,7.55
2024-05-09T23:08:18.788Z,7.53
2024-05-09T23:10:46.067Z,7.55
2024-05-09T23:13:16.048Z,7.63
2024-05-09T23:15:45.856Z,7.50
2024-05-09T23:18:15.666Z,7.43
2024-05-09T23:20:42.900Z,7.63
2024-05-09T23:23:12.787Z,7.60
2024-05-09T23:25:41.447Z,7.25
2024-05-09T23:28:11.632Z,7.55
2024-05-09T23:30:40.838Z,7.03
2024-05-09T23:33:15.160Z,7.40
2024-05-09T23:35:44.005Z,7.30
2024-05-09T23:38:14.046Z,7.07
2024-05-09T23:40:42.343Z,6.65
2024-05-09T23:43:13.513Z,7.57
2024-05-09T23:45:41.185Z,7.00
2024-05-09T23:48:14.422Z,7.60
2024-05-09T23:50:41.979Z,7.82
2024-05-09T23:53:11.993Z,6.78
2024-05-09T23:55:39.430Z,6.78
2024-05-09T23:58:11.333Z,6.97
